Time;durP1;ratioP1;P1;durP2;ratioP2;P2;SDS_P1;SDS_P2;PMS_P1;PMS_P2;Temp;Humidity;BMP_temperature;BMP_pressure;BME280_temperature;BME280_humidity;BME280_pressure;Samples;Min_cycle;Max_cycle;Signal;HPM_P1;HPM_P2
2022/05/12 00:02:01;;;;;;;2.40;1.55;;;13.20;99.90;;;;;;4998274;28;20042;-69
2022/05/12 00:04:28;;;;;;;3.53;1.42;;;12.90;99.90;;;;;;4991407;28;20046;-70
2022/05/12 00:06:54;;;;;;;5.60;1.73;;;13.10;99.90;;;;;;5004311;28;20405;-70
2022/05/12 00:09:20;;;;;;;6.45;1.65;;;12.90;99.90;;;;;;4969002;28;20042;-69
2022/05/12 00:11:46;;;;;;;2.83;1.17;;;12.70;99.90;;;;;;5010158;28;20042;-69
2022/05/12 00:14:12;;;;;;;5.07;1.50;;;13.00;99.90;;;;;;4995417;28;20045;-68
2022/05/12 00:16:38;;;;;;;2.95;1.70;;;12.70;99.90;;;;;;4972299;28;20109;-71
2022/05/12 00:19:04;;;;;;;3.72;1.38;;;13.10;99.90;;;;;;4998655;28;20199;-70
2022/05/12 00:21:29;;;;;;;3.45;1.45;;;12.80;99.90;;;;;;4976334;28;20405;-70
2022/05/12 00:23:58;;;;;;;5.40;1.60;;;12.90;99.90;;;;;;4995366;28;20046;-70
2022/05/12 00:26:25;;;;;;;3.15;1.38;;;12.50;99.90;;;;;;4972365;28;20056;-70
2022/05/12 00:28:51;;;;;;;3.10;1.40;;;12.60;99.90;;;;;;4988049;28;20137;-69
2022/05/12 00:31:18;;;;;;;3.78;1.40;;;12.70;99.90;;;;;;4986494;28;20062;-69
2022/05/12 00:33:44;;;;;;;2.35;1.38;;;12.70;99.90;;;;;;4995138;28;20431;-70
2022/05/12 00:36:10;;;;;;;6.07;1.65;;;12.30;99.90;;;;;;5005385;28;20366;-70
2022/05/12 00:38:36;;;;;;;5.63;1.42;;;12.30;99.90;;;;;;4992343;28;20034;-69
2022/05/12 00:41:02;;;;;;;3.17;1.35;;;12.40;99.90;;;;;;4999088;28;20405;-70
2022/05/12 00:43:43;;;;;;;2.40;1.20;;;12.60;99.90;;;;;;4991812;28;20046;-69
2022/05/12 00:46:16;;;;;;;4.00;1.20;;;12.50;99.90;;;;;;4993215;28;20101;-69
2022/05/12 00:48:44;;;;;;;5.53;1.33;;;12.50;99.90;;;;;;5005578;28;20078;-68
2022/05/12 00:54:00;;;;;;;3.20;0.95;;;12.10;99.90;;;;;;5039584;22;20407;-71
2022/05/12 00:56:25;;;;;;;5.65;1.20;;;12.30;99.90;;;;;;5032655;28;20427;-70
2022/05/12 00:59:10;;;;;;;3.35;1.20;;;11.90;99.90;;;;;;5044933;28;20095;-69
2022/05/12 01:01:38;;;;;;;4.00;1.10;;;11.80;99.90;;;;;;5044664;28;20033;-68
2022/05/12 01:04:04;;;;;;;1.45;0.90;;;11.90;99.90;;;;;;5043160;28;20046;-70
2022/05/12 01:06:31;;;;;;;2.08;0.98;;;12.10;99.90;;;;;;5025308;28;20036;-69
2022/05/12 01:08:58;;;;;;;5.30;1.30;;;11.90;99.90;;;;;;5037649;28;20045;-70
2022/05/12 01:11:24;;;;;;;2.60;1.20;;;11.70;99.90;;;;;;5035096;28;20030;-70
2022/05/12 01:13:54;;;;;;;2.55;1.20;;;11.80;99.90;;;;;;5026927;28;20382;-70
2022/05/12 01:16:45;;;;;;;3.55;1.17;;;11.70;99.90;;;;;;5037458;28;20091;-70
2022/05/12 01:19:18;;;;;;;3.75;1.30;;;11.80;99.90;;;;;;5031702;28;20392;-70
2022/05/12 01:21:44;;;;;;;4.10;1.13;;;11.70;99.90;;;;;;5029840;28;20073;-70
2022/05/12 01:24:11;;;;;;;4.95;1.85;;;11.80;99.90;;;;;;5029589;28;20154;-70
2022/05/12 01:26:37;;;;;;;3.20;1.30;;;11.50;99.90;;;;;;5034918;28;20041;-70
2022/05/12 01:29:04;;;;;;;2.88;1.30;;;11.50;99.90;;;;;;5022919;28;20053;-70
2022/05/12 01:31:30;;;;;;;2.90;1.27;;;11.50;99.90;;;;;;5044992;28;20084;-69
2022/05/12 01:33:56;;;;;;;3.78;1.40;;;11.60;99.90;;;;;;5044334;28;20680;-69
2022/05/12 01:36:22;;;;;;;3.65;1.02;;;11.40;99.90;;;;;;5031110;28;20041;-70
2022/05/12 01:38:48;;;;;;;2.22;1.27;;;11.40;99.90;;;;;;5046299;28;20500;-68
2022/05/12 01:41:15;;;;;;;3.03;1.00;;;11.40;99.90;;;;;;5067597;28;20094;-69
2022/05/12 01:43:41;;;;;;;4.22;1.35;;;11.40;99.90;;;;;;5032670;28;20545;-69
2022/05/12 01:46:07;;;;;;;1.85;1.05;;;11.40;99.90;;;;;;5046963;28;20044;-70
2022/05/12 01:48:33;;;;;;;3.75;1.30;;;11.40;99.90;;;;;;5030915;28;20435;-69
2022/05/12 01:50:59;;;;;;;3.90;1.30;;;11.40;99.90;;;;;;5047273;28;20053;-70
2022/05/12 01:53:24;;;;;;;2.60;1.23;;;11.60;99.90;;;;;;5047735;28;20135;-69
2022/05/12 01:55:50;;;;;;;4.43;1.60;;;11.50;99.90;;;;;;5045925;28;20050;-70
2022/05/12 01:58:18;;;;;;;1.85;1.33;;;11.50;99.90;;;;;;5039728;28;20037;-69
2022/05/12 02:00:44;;;;;;;3.70;1.50;;;11.50;99.90;;;;;;5027722;28;20041;-70
2022/05/12 02:03:11;;;;;;;3.22;1.30;;;11.30;99.90;;;;;;5049757;28;20049;-69
2022/05/12 02:05:39;;;;;;;2.97;1.20;;;11.50;99.90;;;;;;5050795;28;20086;-70
2022/05/12 02:08:07;;;;;;;3.17;1.20;;;11.30;99.90;;;;;;5035003;28;20403;-71
2022/05/12 02:10:39;;;;;;;6.45;1.48;;;11.20;99.90;;;;;;5043008;28;20127;-69
2022/05/12 02:13:11;;;;;;;2.22;1.50;;;11.30;99.90;;;;;;5044568;28;20041;-69
2022/05/12 02:15:38;;;;;;;5.18;1.60;;;11.40;99.90;;;;;;5047156;28;20040;-69
2022/05/12 02:18:05;;;;;;;5.68;1.67;;;11.40;99.90;;;;;;5046589;28;20059;-69
2022/05/12 02:20:31;;;;;;;4.90;2.00;;;11.40;99.90;;;;;;5043406;28;20049;-69
2022/05/12 02:22:57;;;;;;;4.28;1.60;;;11.40;99.90;;;;;;5052197;28;20095;-69
2022/05/12 02:25:23;;;;;;;3.38;1.92;;;11.50;99.90;;;;;;5044441;28;20508;-69
2022/05/12 02:27:51;;;;;;;4.03;1.85;;;11.50;99.90;;;;;;5024999;28;20033;-69
2022/05/12 02:30:31;;;;;;;3.65;1.50;;;11.50;99.90;;;;;;5038305;28;20522;-70
2022/05/12 02:32:57;;;;;;;2.90;1.77;;;11.20;99.90;;;;;;5032017;28;20380;-69
2022/05/12 02:35:24;;;;;;;4.70;2.60;;;11.50;99.90;;;;;;5048387;28;20132;-69
2022/05/12 02:37:50;;;;;;;4.65;2.17;;;11.20;99.90;;;;;;5048169;28;20468;-69
2022/05/12 02:40:20;;;;;;;3.67;2.13;;;11.30;99.90;;;;;;5023088;28;20127;-70
2022/05/12 02:42:46;;;;;;;3.92;2.28;;;11.40;99.90;;;;;;5047747;28;20037;-68
2022/05/12 02:45:12;;;;;;;4.85;2.20;;;11.40;99.90;;;;;;5038415;28;20048;-70
2022/05/12 02:47:38;;;;;;;6.72;2.75;;;11.20;99.90;;;;;;5024224;28;20392;-69
2022/05/12 02:50:06;;;;;;;4.10;2.38;;;11.50;99.90;;;;;;5045216;28;20052;-69
2022/05/12 02:52:32;;;;;;;5.55;2.65;;;11.60;99.90;;;;;;5039140;28;20033;-69
2022/05/12 02:54:57;;;;;;;6.75;2.63;;;11.40;99.90;;;;;;5044499;28;20152;-69
2022/05/12 02:57:23;;;;;;;9.88;3.28;;;11.60;99.90;;;;;;5031860;28;20053;-69
2022/05/12 02:59:49;;;;;;;5.85;2.55;;;11.60;99.90;;;;;;5004397;28;20478;-68
2022/05/12 03:02:15;;;;;;;6.03;3.03;;;11.30;99.90;;;;;;5043177;28;20064;-69
2022/05/12 03:04:41;;;;;;;7.55;2.75;;;11.70;99.90;;;;;;5044718;28;20056;-70
2022/05/12 03:07:07;;;;;;;5.97;2.95;;;11.70;99.90;;;;;;5050364;28;20049;-70
2022/05/12 03:09:33;;;;;;;6.85;2.30;;;11.40;99.90;;;;;;5039155;28;20044;-68
2022/05/12 03:11:58;;;;;;;6.38;3.00;;;11.80;99.90;;;;;;5048695;28;20059;-70
2022/05/12 03:14:24;;;;;;;7.00;2.70;;;11.90;99.90;;;;;;5044281;28;20074;-69
2022/05/12 03:16:53;;;;;;;6.13;2.90;;;11.90;99.90;;;;;;5041450;28;20128;-69
2022/05/12 03:19:21;;;;;;;7.68;2.85;;;11.70;99.90;;;;;;5044886;28;20083;-68
2022/05/12 03:21:46;;;;;;;10.95;3.28;;;12.00;99.90;;;;;;5028683;28;20068;-69
2022/05/12 03:24:14;;;;;;;6.50;3.35;;;11.70;99.90;;;;;;5042421;28;20119;-70
2022/05/12 03:26:40;;;;;;;6.60;3.17;;;12.20;99.90;;;;;;5032342;28;20040;-69
2022/05/12 03:29:06;;;;;;;5.95;3.20;;;11.80;99.90;;;;;;5029263;28;20048;-70
2022/05/12 03:31:32;;;;;;;10.10;3.08;;;12.00;99.90;;;;;;5030852;28;20082;-69
2022/05/12 03:34:00;;;;;;;5.90;2.97;;;12.20;99.90;;;;;;5043989;28;20056;-70
2022/05/12 03:36:26;;;;;;;7.40;3.20;;;11.90;99.90;;;;;;5015890;28;20365;-69
2022/05/12 03:38:51;;;;;;;9.75;3.20;;;11.90;99.90;;;;;;5046080;28;20404;-70
2022/05/12 03:41:17;;;;;;;8.20;3.30;;;12.00;99.90;;;;;;5043939;28;20037;-70
2022/05/12 03:46:30;;;;;;;6.78;3.83;;;12.20;99.90;;;;;;5043496;28;20087;-70
2022/05/12 03:48:57;;;;;;;10.80;3.60;;;12.30;99.90;;;;;;5045229;28;20044;-69
2022/05/12 03:51:22;;;;;;;10.98;3.53;;;12.10;99.90;;;;;;5042034;28;20036;-69
2022/05/12 03:53:48;;;;;;;9.52;3.55;;;12.10;99.90;;;;;;5043061;28;20111;-69
2022/05/12 03:56:14;;;;;;;9.25;3.65;;;12.50;99.90;;;;;;5042812;28;20051;-68
2022/05/12 03:58:39;;;;;;;9.77;3.78;;;12.30;99.90;;;;;;5046672;28;20052;-69
2022/05/12 04:01:06;;;;;;;8.23;3.95;;;12.30;99.90;;;;;;5016774;28;20050;-70
2022/05/12 04:03:31;;;;;;;9.25;4.53;;;12.30;99.90;;;;;;5049854;28;20041;-68
2022/05/12 04:06:01;;;;;;;8.90;4.28;;;12.60;99.90;;;;;;5043242;28;22121;-69
2022/05/12 04:08:27;;;;;;;9.13;4.40;;;12.40;99.90;;;;;;5044698;28;20049;-69
2022/05/12 04:10:53;;;;;;;7.53;4.10;;;12.40;99.90;;;;;;5011234;28;20121;-73
2022/05/12 04:13:19;;;;;;;8.52;4.30;;;12.90;99.90;;;;;;5044385;28;20055;-69
2022/05/12 04:15:45;;;;;;;11.77;4.50;;;12.80;99.90;;;;;;5045487;28;20031;-70
2022/05/12 04:18:11;;;;;;;10.60;4.55;;;12.90;99.90;;;;;;5041342;28;20095;-71
2022/05/12 04:20:37;;;;;;;8.05;4.30;;;12.40;99.90;;;;;;5045082;28;20037;-71
2022/05/12 04:23:03;;;;;;;9.00;3.97;;;12.50;99.90;;;;;;5044831;28;20047;-71
2022/05/12 04:25:29;;;;;;;7.72;3.70;;;12.50;99.90;;;;;;5040699;28;20119;-71
2022/05/12 04:27:55;;;;;;;8.77;4.07;;;12.70;99.90;;;;;;5044697;28;20135;-71
2022/05/12 04:30:26;;;;;;;8.00;3.95;;;12.60;99.90;;;;;;5042756;28;20091;-71
2022/05/12 04:32:53;;;;;;;8.00;4.70;;;12.90;99.90;;;;;;5042791;28;20468;-69
2022/05/12 04:35:20;;;;;;;10.07;5.43;;;13.00;99.90;;;;;;5047168;28;20044;-71
2022/05/12 04:37:49;;;;;;;7.55;4.60;;;13.10;99.90;;;;;;5042008;28;21072;-70
2022/05/12 04:40:30;;;;;;;8.43;5.28;;;12.90;99.90;;;;;;5038083;28;20043;-70
2022/05/12 04:42:58;;;;;;;10.43;5.22;;;13.00;99.90;;;;;;5043508;28;20436;-71
2022/05/12 04:45:27;;;;;;;10.30;5.22;;;13.20;99.90;;;;;;5046431;28;20484;-70
2022/05/12 04:47:53;;;;;;;7.95;4.40;;;13.50;99.90;;;;;;5041792;28;20090;-70
2022/05/12 04:50:29;;;;;;;9.15;4.72;;;13.80;99.90;;;;;;5040234;28;20041;-71
2022/05/12 04:52:55;;;;;;;7.43;4.15;;;13.30;99.90;;;;;;5035312;28;20115;-71
2022/05/12 04:55:21;;;;;;;10.82;5.10;;;13.70;99.90;;;;;;5043659;28;20145;-70
2022/05/12 04:57:50;;;;;;;9.82;4.55;;;13.30;99.90;;;;;;5028454;28;20052;-70
2022/05/12 05:00:28;;;;;;;8.45;4.70;;;13.90;99.90;;;;;;5040951;28;20044;-70
2022/05/12 05:02:55;;;;;;;10.30;5.25;;;13.70;99.90;;;;;;5045891;28;20520;-72
2022/05/12 05:05:21;;;;;;;9.27;4.90;;;14.10;99.90;;;;;;5027794;28;20048;-70
2022/05/12 05:07:46;;;;;;;9.48;4.53;;;13.90;99.90;;;;;;5047285;28;20110;-71
2022/05/12 05:10:12;;;;;;;11.98;4.97;;;14.00;99.90;;;;;;5039870;28;21228;-70
2022/05/12 05:12:39;;;;;;;12.75;5.45;;;14.10;99.90;;;;;;5020647;28;20096;-70
2022/05/12 05:15:06;;;;;;;7.53;4.93;;;13.70;99.90;;;;;;5019327;28;20094;-70
2022/05/12 05:17:35;;;;;;;9.35;4.72;;;14.10;99.90;;;;;;5036553;28;20037;-70
2022/05/12 05:20:04;;;;;;;15.98;6.25;;;14.30;99.90;;;;;;5034112;28;20107;-70
2022/05/12 05:22:30;;;;;;;8.98;5.00;;;14.20;99.90;;;;;;5026847;28;20037;-70
2022/05/12 05:24:56;;;;;;;8.90;5.15;;;14.50;99.90;;;;;;5029487;28;20624;-70
2022/05/12 05:27:21;;;;;;;8.95;5.20;;;14.40;99.90;;;;;;5030282;28;20036;-72
2022/05/12 05:29:48;;;;;;;11.13;5.55;;;14.30;99.90;;;;;;5022595;28;20033;-70
2022/05/12 05:32:15;;;;;;;12.75;5.38;;;14.70;99.90;;;;;;5043433;28;20080;-71
2022/05/12 05:34:41;;;;;;;8.23;4.90;;;14.80;99.90;;;;;;5030956;28;20037;-70
2022/05/12 05:37:07;;;;;;;12.25;5.85;;;14.80;99.90;;;;;;5047729;28;20042;-70
2022/05/12 05:39:33;;;;;;;8.88;5.35;;;15.00;99.90;;;;;;5031981;28;20055;-69
2022/05/12 05:42:03;;;;;;;9.40;5.15;;;14.60;99.90;;;;;;5048040;28;20052;-69
2022/05/12 05:44:32;;;;;;;9.55;4.38;;;14.40;99.90;;;;;;5035709;28;20099;-71
2022/05/12 05:46:58;;;;;;;9.13;5.28;;;15.10;99.90;;;;;;5040302;28;20437;-72
2022/05/12 05:49:24;;;;;;;10.40;5.05;;;14.90;99.90;;;;;;5028579;28;20128;-71
2022/05/12 05:54:34;;;;;;;7.70;4.82;;;15.10;99.90;;;;;;5009553;28;20056;-71
2022/05/12 05:57:01;;;;;;;8.48;4.82;;;15.30;99.90;;;;;;5029632;28;20474;-71
2022/05/12 05:59:27;;;;;;;11.23;4.80;;;14.70;99.90;;;;;;5013192;28;20046;-70
2022/05/12 06:01:52;;;;;;;14.07;5.32;;;14.90;99.90;;;;;;5033454;28;20044;-71
2022/05/12 06:04:18;;;;;;;10.07;4.53;;;15.30;99.90;;;;;;5047820;28;20040;-71
2022/05/12 06:06:44;;;;;;;9.98;4.35;;;15.40;99.90;;;;;;5020188;28;20466;-71
2022/05/12 06:09:13;;;;;;;9.57;4.57;;;15.00;99.90;;;;;;5045713;28;20048;-69
2022/05/12 06:11:43;;;;;;;8.65;4.40;;;14.90;99.90;;;;;;5047238;28;20078;-69
2022/05/12 06:14:09;;;;;;;12.73;5.03;;;15.10;99.90;;;;;;5017062;28;20041;-68
2022/05/12 06:16:35;;;;;;;8.90;4.28;;;15.20;99.90;;;;;;5041099;28;20132;-72
2022/05/12 06:19:01;;;;;;;10.30;4.35;;;15.30;99.90;;;;;;5021473;28;20136;-71
2022/05/12 06:21:27;;;;;;;12.55;4.57;;;15.20;99.90;;;;;;5029431;28;20048;-69
2022/05/12 06:23:53;;;;;;;8.05;3.70;;;15.20;99.90;;;;;;4999720;28;20076;-70
2022/05/12 06:26:20;;;;;;;10.18;4.10;;;15.30;99.90;;;;;;5016619;28;20040;-70
2022/05/12 06:28:47;;;;;;;7.97;3.22;;;15.80;99.90;;;;;;5050717;28;20071;-70
2022/05/12 06:31:24;;;;;;;9.35;4.00;;;15.80;99.90;;;;;;5048544;28;20072;-69
2022/05/12 06:33:51;;;;;;;8.02;3.30;;;15.80;99.90;;;;;;5027066;28;20409;-69
2022/05/12 06:36:17;;;;;;;6.25;3.25;;;15.10;99.90;;;;;;5045381;28;20055;-70
2022/05/12 06:38:43;;;;;;;7.97;2.60;;;15.50;99.90;;;;;;5045412;28;20041;-70
2022/05/12 06:41:08;;;;;;;5.90;2.90;;;15.20;99.90;;;;;;5030791;28;20443;-70
2022/05/12 06:43:35;;;;;;;5.68;2.67;;;15.30;99.90;;;;;;5008553;28;20041;-69
2022/05/12 06:46:01;;;;;;;6.18;2.67;;;14.70;99.90;;;;;;5044267;28;20456;-69
2022/05/12 06:48:27;;;;;;;8.57;3.05;;;14.70;99.90;;;;;;5044574;28;20069;-70
2022/05/12 06:50:53;;;;;;;5.00;2.22;;;15.00;99.90;;;;;;5046331;28;20079;-68
2022/05/12 06:53:19;;;;;;;6.03;2.42;;;14.70;99.90;;;;;;5038986;28;20519;-69
2022/05/12 06:55:45;;;;;;;5.85;2.15;;;14.70;99.90;;;;;;5043842;28;20053;-70
2022/05/12 06:58:11;;;;;;;5.03;2.40;;;15.00;99.90;;;;;;5040222;28;20033;-69
2022/05/12 07:00:38;;;;;;;10.30;2.17;;;14.60;99.90;;;;;;5015862;28;20041;-69
2022/05/12 07:03:12;;;;;;;4.03;2.05;;;14.70;99.90;;;;;;5002190;28;20440;-71
2022/05/12 07:05:39;;;;;;;7.82;2.72;;;14.50;99.90;;;;;;5051661;28;20041;-69
2022/05/12 07:08:06;;;;;;;8.70;2.00;;;14.50;99.90;;;;;;5039236;28;20176;-68
2022/05/12 07:10:32;;;;;;;5.38;2.17;;;14.60;99.90;;;;;;5044761;28;20051;-69
2022/05/12 07:12:58;;;;;;;6.47;2.33;;;14.50;99.90;;;;;;5026808;28;21758;-69
2022/05/12 07:15:27;;;;;;;6.70;2.03;;;14.70;99.90;;;;;;5015054;28;20044;-69
2022/05/12 07:17:55;;;;;;;5.15;1.85;;;14.60;99.90;;;;;;5028431;28;20045;-68
2022/05/12 07:28:36;;;;;;;5.13;2.00;;;14.60;99.90;;;;;;5028809;28;20044;-67
2022/05/12 07:31:03;;;;;;;4.90;2.00;;;14.70;99.90;;;;;;5026570;28;20103;-69
2022/05/12 07:33:39;;;;;;;5.70;2.13;;;14.80;99.90;;;;;;5040118;28;20465;-68
2022/05/12 07:36:10;;;;;;;4.05;1.77;;;14.90;99.90;;;;;;5031090;28;20045;-67
2022/05/12 07:38:36;;;;;;;5.05;1.92;;;15.00;99.90;;;;;;5046415;28;20044;-69
2022/05/12 07:41:04;;;;;;;6.20;2.00;;;15.00;99.90;;;;;;5033012;28;20080;-67
2022/05/12 07:43:30;;;;;;;6.93;2.50;;;14.80;99.90;;;;;;5050415;28;20051;-69
2022/05/12 07:45:56;;;;;;;4.43;1.85;;;15.00;99.90;;;;;;5030123;28;20040;-67
2022/05/12 07:48:22;;;;;;;4.05;1.98;;;15.10;99.90;;;;;;5047590;28;20045;-68
2022/05/12 07:50:47;;;;;;;4.13;1.88;;;15.30;99.90;;;;;;5039486;28;20071;-67
2022/05/12 07:53:13;;;;;;;8.50;2.45;;;15.50;99.90;;;;;;5043069;28;20079;-68
2022/05/12 07:55:39;;;;;;;5.95;1.95;;;15.50;99.90;;;;;;5038542;28;20071;-68
2022/05/12 07:58:05;;;;;;;5.35;2.17;;;15.40;99.90;;;;;;5043580;28;20147;-66
2022/05/12 08:00:33;;;;;;;4.00;2.00;;;15.30;99.90;;;;;;5042547;28;20036;-67
2022/05/12 08:02:59;;;;;;;2.60;1.33;;;15.40;99.90;;;;;;5025616;28;20086;-68
2022/05/12 08:05:25;;;;;;;5.47;1.80;;;15.50;99.90;;;;;;5049302;28;20385;-68
2022/05/12 08:07:52;;;;;;;6.07;1.80;;;15.60;99.90;;;;;;5049698;28;20044;-67
2022/05/12 08:10:18;;;;;;;4.78;1.60;;;15.60;99.90;;;;;;5041798;28;20076;-68
2022/05/12 08:12:45;;;;;;;5.85;1.83;;;15.50;99.90;;;;;;5037325;28;20403;-67
2022/05/12 08:15:11;;;;;;;4.20;1.58;;;15.60;99.90;;;;;;5034738;28;20041;-70
2022/05/12 08:17:38;;;;;;;2.65;1.35;;;15.60;99.90;;;;;;5037335;28;20562;-69
2022/05/12 08:20:05;;;;;;;4.20;1.35;;;15.60;99.90;;;;;;5059274;28;20099;-69
2022/05/12 08:22:33;;;;;;;5.00;1.63;;;15.80;99.90;;;;;;5044169;28;20034;-70
2022/05/12 08:24:58;;;;;;;5.40;1.70;;;15.70;99.90;;;;;;5044374;28;20045;-69
2022/05/12 08:27:25;;;;;;;6.07;1.60;;;15.60;99.90;;;;;;5047853;28;20045;-69
2022/05/12 08:29:51;;;;;;;5.78;1.95;;;15.40;99.90;;;;;;5030518;28;20056;-69
2022/05/12 08:32:17;;;;;;;7.47;1.63;;;15.70;99.90;;;;;;5044757;28;20037;-71
2022/05/12 08:34:44;;;;;;;3.78;1.60;;;15.80;99.90;;;;;;5009196;28;20040;-71
2022/05/12 08:37:10;;;;;;;9.02;1.75;;;16.00;99.90;;;;;;5014210;28;20069;-71
2022/05/12 08:39:36;;;;;;;4.53;1.30;;;16.10;99.90;;;;;;5041979;28;20039;-71
2022/05/12 08:42:30;;;;;;;5.22;1.50;;;16.20;99.90;;;;;;5015282;28;20053;-70
2022/05/12 08:44:59;;;;;;;3.63;1.58;;;16.50;99.90;;;;;;5022401;28;20068;-71
2022/05/12 08:47:34;;;;;;;3.35;1.50;;;16.50;99.90;;;;;;5047238;28;20047;-71
2022/05/12 08:50:00;;;;;;;;;;;16.80;99.90;;;;;;5046102;28;20072;-71
2022/05/12 08:52:44;;;;;;;7.13;2.13;;;16.60;99.90;;;;;;5046194;28;20013;-70
2022/05/12 08:55:21;;;;;;;5.97;1.25;;;16.60;99.90;;;;;;5017926;28;20049;-72
2022/05/12 08:58:12;;;;;;;3.45;1.42;;;16.70;99.90;;;;;;5025894;28;20037;-69
2022/05/12 09:00:44;;;;;;;4.07;1.10;;;16.70;99.90;;;;;;5049585;28;20078;-72
2022/05/12 09:03:20;;;;;;;6.20;1.30;;;16.90;99.90;;;;;;5047402;28;20052;-68
2022/05/12 09:05:57;;;;;;;4.38;1.30;;;17.10;99.90;;;;;;5045434;28;20591;-68
2022/05/12 09:08:41;;;;;;;4.95;1.40;;;17.00;99.90;;;;;;5039327;28;20048;-69
2022/05/12 09:11:42;;;;;;;3.58;1.20;;;17.60;99.90;;;;;;5048348;28;20107;-71
2022/05/12 09:14:43;;;;;;;3.45;1.50;;;17.30;99.90;;;;;;5042313;28;20036;-71
2022/05/12 09:17:22;;;;;;;6.35;1.48;;;17.40;99.90;;;;;;5001465;28;20100;-70
2022/05/12 09:19:48;;;;;;;4.03;1.50;;;17.90;99.90;;;;;;5032696;28;20045;-70
2022/05/12 09:22:22;;;;;;;2.92;1.20;;;17.80;99.90;;;;;;5048596;28;20041;-70
2022/05/12 09:24:48;;;;;;;7.80;1.40;;;18.30;99.90;;;;;;5042634;28;20128;-68
2022/05/12 09:27:14;;;;;;;5.68;1.52;;;18.30;99.90;;;;;;5042590;28;20521;-71
2022/05/12 09:29:50;;;;;;;5.00;1.30;;;18.70;99.90;;;;;;5030993;28;20044;-69
2022/05/12 09:32:25;;;;;;;5.00;1.60;;;18.70;99.90;;;;;;5028801;28;20041;-70
2022/05/12 09:35:08;;;;;;;3.72;1.23;;;18.60;99.90;;;;;;5042429;28;20045;-72
2022/05/12 09:37:36;;;;;;;3.85;1.50;;;18.70;99.90;;;;;;5045380;28;20103;-66
2022/05/12 09:40:35;;;;;;;4.88;1.55;;;19.20;99.90;;;;;;5047525;28;20132;-69
2022/05/12 09:43:17;;;;;;;3.95;1.30;;;19.20;99.90;;;;;;5048520;28;20052;-68
2022/05/12 09:45:58;;;;;;;6.03;1.60;;;19.90;99.90;;;;;;5011213;28;20056;-69
2022/05/12 09:48:29;;;;;;;3.67;1.35;;;20.40;99.90;;;;;;5027304;28;20057;-68
2022/05/12 09:51:21;;;;;;;2.85;1.35;;;20.30;99.90;;;;;;5045484;28;20119;-68
2022/05/12 09:53:49;;;;;;;2.78;1.30;;;19.80;99.90;;;;;;5028282;28;20142;-67
2022/05/12 09:56:32;;;;;;;4.80;1.25;;;20.10;99.90;;;;;;5027678;28;20076;-69
2022/05/12 09:59:16;;;;;;;2.80;1.17;;;20.10;99.90;;;;;;5050342;28;20420;-67
2022/05/12 10:08:24;;;;;;;3.22;1.20;;;19.70;99.90;;;;;;5038909;28;19921;-67
2022/05/12 10:10:59;;;;;;;3.95;1.42;;;20.00;99.90;;;;;;5016928;28;21776;-69
2022/05/12 10:13:53;;;;;;;2.83;1.38;;;20.40;99.90;;;;;;5010574;28;20191;-68
2022/05/12 10:16:24;;;;;;;4.93;1.30;;;20.70;99.90;;;;;;5037543;28;20112;-67
2022/05/12 10:18:54;;;;;;;3.17;1.05;;;20.90;99.90;;;;;;5039435;28;20386;-69
2022/05/12 10:21:24;;;;;;;3.45;1.40;;;21.30;99.90;;;;;;5044040;28;20044;-67
2022/05/12 10:23:50;;;;;;;5.82;1.10;;;21.00;99.90;;;;;;5048254;28;20764;-69
2022/05/12 10:26:23;;;;;;;3.38;1.10;;;20.90;99.90;;;;;;5019934;28;20128;-69
2022/05/12 10:28:53;;;;;;;3.58;1.13;;;21.30;99.90;;;;;;5016211;28;20535;-69
2022/05/12 10:31:24;;;;;;;3.50;1.40;;;20.90;99.90;;;;;;5034343;28;20099;-68
2022/05/12 10:33:54;;;;;;;2.95;1.20;;;21.00;99.90;;;;;;5048588;28;20044;-67
2022/05/12 10:36:58;;;;;;;3.67;1.25;;;21.00;99.90;;;;;;5047229;28;20052;-69
2022/05/12 10:39:57;;;;;;;3.85;1.17;;;20.70;99.10;;;;;;4991755;28;20472;-67
2022/05/12 10:42:49;;;;;;;3.05;1.08;;;20.70;99.90;;;;;;5038168;28;20052;-71
2022/05/12 10:45:22;;;;;;;3.83;1.75;;;21.10;99.90;;;;;;5033021;28;20045;-69
2022/05/12 10:48:13;;;;;;;3.40;1.10;;;20.70;99.90;;;;;;5050146;28;20412;-68
2022/05/12 10:51:02;;;;;;;2.95;1.40;;;20.90;99.90;;;;;;5049359;28;20103;-70
2022/05/12 10:53:54;;;;;;;3.15;1.13;;;21.10;99.90;;;;;;5048719;28;20037;-67
2022/05/12 10:56:35;;;;;;;3.78;1.33;;;20.90;99.90;;;;;;5030693;28;20045;-70
2022/05/12 10:59:20;;;;;;;4.72;1.00;;;20.80;99.90;;;;;;5037929;28;20037;-71
2022/05/12 11:02:01;;;;;;;;;;;21.10;99.90;;;;;;5044560;28;20072;-71
2022/05/12 11:04:35;;;;;;;2.95;1.08;;;20.70;99.90;;;;;;5050309;28;19921;-69
2022/05/12 11:07:06;;;;;;;4.47;1.35;;;20.60;99.90;;;;;;5049246;28;20545;-67
2022/05/12 11:09:43;;;;;;;3.00;1.05;;;21.00;99.90;;;;;;5022043;28;20055;-67
2022/05/12 11:12:39;;;;;;;2.72;1.10;;;20.90;99.90;;;;;;5039788;28;20068;-68
2022/05/12 11:15:11;;;;;;;4.88;1.08;;;21.30;99.90;;;;;;5055509;28;20060;-70
2022/05/12 11:17:47;;;;;;;2.65;1.27;;;20.80;99.90;;;;;;5030431;28;20070;-68
2022/05/12 11:20:25;;;;;;;4.32;1.30;;;20.20;99.90;;;;;;5046185;28;20048;-67
2022/05/12 11:23:05;;;;;;;4.18;1.25;;;20.40;99.90;;;;;;5048343;28;20515;-72
2022/05/12 11:25:53;;;;;;;3.20;1.25;;;20.60;99.90;;;;;;5026748;28;20083;-72
2022/05/12 11:31:21;;;;;;;4.40;1.27;;;21.30;99.90;;;;;;5047296;28;20049;-70
2022/05/12 11:33:58;;;;;;;;;;;20.20;99.90;;;;;;5048586;28;20047;-70
2022/05/12 11:36:39;;;;;;;2.30;1.10;;;19.50;99.90;;;;;;5033462;28;19921;-69
2022/05/12 11:39:26;;;;;;;3.33;1.30;;;19.90;99.90;;;;;;5048030;28;20044;-69
2022/05/12 11:42:17;;;;;;;2.13;0.95;;;19.80;99.90;;;;;;5046591;28;20495;-71
2022/05/12 11:45:05;;;;;;;2.97;1.08;;;19.80;99.90;;;;;;5045235;28;20045;-68
2022/05/12 11:47:40;;;;;;;2.75;0.93;;;20.00;99.90;;;;;;5010713;28;20102;-69
2022/05/12 11:50:24;;;;;;;2.53;1.00;;;20.30;96.60;;;;;;5025719;28;20029;-68
2022/05/12 11:53:11;;;;;;;3.10;0.80;;;20.30;95.50;;;;;;5022934;28;20033;-71
2022/05/12 11:56:07;;;;;;;4.55;1.02;;;20.40;96.60;;;;;;5029442;28;20119;-69
2022/05/12 11:58:47;;;;;;;2.83;1.15;;;19.60;96.30;;;;;;5033823;28;20033;-70
2022/05/12 12:01:21;;;;;;;4.22;1.50;;;19.70;97.60;;;;;;5046687;28;20045;-70
2022/05/12 12:03:54;;;;;;;2.33;0.90;;;20.40;99.30;;;;;;5037354;28;20199;-72
2022/05/12 12:06:50;;;;;;;2.38;0.85;;;20.80;99.70;;;;;;5037310;28;20076;-70
2022/05/12 12:09:25;;;;;;;3.03;1.00;;;20.60;98.20;;;;;;5026907;28;20454;-68
2022/05/12 12:11:51;;;;;;;2.97;1.10;;;21.20;98.30;;;;;;5044133;28;20037;-71
2022/05/12 12:15:02;;;;;;;3.67;1.00;;;20.50;98.50;;;;;;5016178;28;20041;-69
2022/05/12 12:17:32;;;;;;;2.67;0.82;;;21.00;99.90;;;;;;5018122;28;20768;-69
2022/05/12 12:20:06;;;;;;;2.70;1.00;;;21.10;99.90;;;;;;5032281;28;20365;-69
2022/05/12 12:22:37;;;;;;;3.13;1.17;;;21.10;99.90;;;;;;5044929;28;20132;-70
2022/05/12 12:25:09;;;;;;;2.20;1.25;;;20.30;99.90;;;;;;5047323;28;20052;-70
2022/05/12 12:27:52;;;;;;;3.38;1.30;;;20.80;99.90;;;;;;5030666;28;20045;-68
2022/05/12 12:30:30;;;;;;;2.80;1.30;;;21.00;99.90;;;;;;5048221;28;20049;-70
2022/05/12 12:33:11;;;;;;;3.28;1.30;;;21.40;99.90;;;;;;5029220;28;20043;-69
2022/05/12 12:36:00;;;;;;;2.75;1.10;;;21.10;99.00;;;;;;5024175;28;20037;-71
2022/05/12 12:38:44;;;;;;;2.72;1.08;;;20.90;97.70;;;;;;5035092;28;20049;-69
2022/05/12 12:41:15;;;;;;;2.83;1.30;;;20.50;99.90;;;;;;5031004;28;20478;-70
2022/05/12 12:43:50;;;;;;;3.20;1.38;;;20.00;99.60;;;;;;5043057;28;20508;-70
2022/05/12 12:46:20;;;;;;;2.83;1.20;;;20.30;99.40;;;;;;5049012;28;20136;-67
2022/05/12 12:48:52;;;;;;;3.63;1.05;;;21.00;98.00;;;;;;5023678;28;20049;-68
2022/05/12 12:51:29;;;;;;;2.13;0.98;;;21.40;94.20;;;;;;5029008;28;20042;-71
2022/05/12 12:56:41;;;;;;;2.25;1.10;;;20.40;98.40;;;;;;5028637;28;20154;-69
2022/05/12 12:59:21;;;;;;;2.15;1.00;;;20.00;98.40;;;;;;5029093;28;20033;-68
2022/05/12 13:01:57;;;;;;;2.38;1.10;;;19.80;94.10;;;;;;5012192;28;20046;-69
2022/05/12 13:04:32;;;;;;;5.68;1.30;;;20.40;91.60;;;;;;5043902;28;20033;-71
2022/05/12 13:07:02;;;;;;;2.47;1.02;;;20.40;96.20;;;;;;5048763;28;20029;-69
2022/05/12 13:09:34;;;;;;;2.53;1.20;;;20.20;95.40;;;;;;5048511;28;20053;-67
2022/05/12 13:12:27;;;;;;;3.95;1.00;;;20.50;97.00;;;;;;5048547;28;20045;-67
2022/05/12 13:14:54;;;;;;;4.78;1.17;;;20.20;92.90;;;;;;5044508;28;20080;-68
2022/05/12 13:17:30;;;;;;;3.22;1.45;;;19.80;93.60;;;;;;5031678;28;20047;-69
2022/05/12 13:19:58;;;;;;;3.80;1.10;;;19.30;95.40;;;;;;5046092;28;20075;-69
2022/05/12 13:22:44;;;;;;;2.13;1.08;;;19.70;95.50;;;;;;5003848;28;20362;-71
2022/05/12 13:25:13;;;;;;;3.70;1.48;;;19.70;98.10;;;;;;5045482;28;20049;-68
2022/05/12 13:27:40;;;;;;;5.50;1.30;;;20.30;95.70;;;;;;5029248;28;20045;-70
2022/05/12 13:30:25;;;;;;;2.80;1.15;;;19.90;92.50;;;;;;5047092;28;20045;-69
2022/05/12 13:32:53;;;;;;;4.70;1.30;;;19.70;90.50;;;;;;5048030;28;20530;-71
2022/05/12 13:35:26;;;;;;;4.93;1.02;;;20.20;95.40;;;;;;5049304;28;20033;-70
2022/05/12 13:38:15;;;;;;;2.20;1.15;;;19.60;91.90;;;;;;5051320;28;20435;-71